sensor_id;sensor_type;location;lat;lon;timestamp;P1;durP1;ratioP1;P2;durP2;ratioP2
14599;SDS011;7386;45.586;12.854;2024-03-08T00:00:44;20.03;;;14.37;;
14599;SDS011;7386;45.586;12.854;2024-03-08T00:03:12;21.00;;;15.63;;
14599;SDS011;7386;45.586;12.854;2024-03-08T00:05:41;19.97;;;13.90;;
14599;SDS011;7386;45.586;12.854;2024-03-08T00:08:09;22.20;;;15.23;;
14599;SDS011;7386;45.586;12.854;2024-03-08T00:10:39;21.67;;;16.40;;
14599;SDS011;7386;45.586;12.854;2024-03-08T00:13:08;21.10;;;15.57;;
14599;SDS011;7386;45.586;12.854;2024-03-08T00:15:36;20.70;;;14.90;;
14599;SDS011;7386;45.586;12.854;2024-03-08T00:18:05;20.80;;;15.00;;
14599;SDS011;7386;45.586;12.854;2024-03-08T00:20:33;20.17;;;15.07;;
14599;SDS011;7386;45.586;12.854;2024-03-08T00:23:02;20.70;;;15.40;;
14599;SDS011;7386;45.586;12.854;2024-03-08T00:25:30;20.33;;;14.83;;
14599;SDS011;7386;45.586;12.854;2024-03-08T00:28:01;20.40;;;14.77;;
14599;SDS011;7386;45.586;12.854;2024-03-08T00:30:31;19.37;;;14.37;;
14599;SDS011;7386;45.586;12.854;2024-03-08T00:32:59;22.53;;;14.60;;
14599;SDS011;7386;45.586;12.854;2024-03-08T00:35:28;19.13;;;14.00;;
14599;SDS011;7386;45.586;12.854;2024-03-08T00:37:56;20.23;;;14.00;;
14599;SDS011;7386;45.586;12.854;2024-03-08T00:40:25;16.80;;;13.57;;
14599;SDS011;7386;45.586;12.854;2024-03-08T00:42:53;20.27;;;14.00;;
14599;SDS011;7386;45.586;12.854;2024-03-08T00:45:23;19.20;;;14.07;;
14599;SDS011;7386;45.586;12.854;2024-03-08T00:47:52;18.63;;;13.50;;
14599;SDS011;7386;45.586;12.854;2024-03-08T00:50:21;20.53;;;13.03;;
14599;SDS011;7386;45.586;12.854;2024-03-08T00:52:49;17.77;;;13.10;;
14599;SDS011;7386;45.586;12.854;2024-03-08T00:55:18;17.10;;;13.07;;
14599;SDS011;7386;45.586;12.854;2024-03-08T00:57:46;17.07;;;13.30;;
14599;SDS011;7386;45.586;12.854;2024-03-08T01:00:15;18.40;;;13.33;;
14599;SDS011;7386;45.586;12.854;2024-03-08T01:02:45;15.57;;;12.30;;
14599;SDS011;7386;45.586;12.854;2024-03-08T01:05:14;17.23;;;12.60;;
14599;SDS011;7386;45.586;12.854;2024-03-08T01:07:43;17.03;;;12.80;;
14599;SDS011;7386;45.586;12.854;2024-03-08T01:10:12;16.50;;;11.90;;
14599;SDS011;7386;45.586;12.854;2024-03-08T01:12:41;17.47;;;12.37;;
14599;SDS011;7386;45.586;12.854;2024-03-08T01:15:11;16.60;;;11.83;;
14599;SDS011;7386;45.586;12.854;2024-03-08T01:17:39;15.10;;;11.27;;
14599;SDS011;7386;45.586;12.854;2024-03-08T01:20:12;17.47;;;11.90;;
14599;SDS011;7386;45.586;12.854;2024-03-08T01:22:40;15.23;;;11.53;;
14599;SDS011;7386;45.586;12.854;2024-03-08T01:25:09;14.37;;;11.33;;
14599;SDS011;7386;45.586;12.854;2024-03-08T01:27:37;15.67;;;11.27;;
14599;SDS011;7386;45.586;12.854;2024-03-08T01:30:06;16.83;;;11.03;;
14599;SDS011;7386;45.586;12.854;2024-03-08T01:32:36;13.73;;;10.37;;
14599;SDS011;7386;45.586;12.854;2024-03-08T01:35:05;14.20;;;11.10;;
14599;SDS011;7386;45.586;12.854;2024-03-08T01:37:37;14.07;;;10.60;;
14599;SDS011;7386;45.586;12.854;2024-03-08T01:40:06;14.67;;;10.40;;
14599;SDS011;7386;45.586;12.854;2024-03-08T01:42:36;13.97;;;10.63;;
14599;SDS011;7386;45.586;12.854;2024-03-08T01:45:05;12.90;;;9.93;;
14599;SDS011;7386;45.586;12.854;2024-03-08T01:47:34;12.93;;;9.77;;
14599;SDS011;7386;45.586;12.854;2024-03-08T01:50:03;12.43;;;9.60;;
14599;SDS011;7386;45.586;12.854;2024-03-08T01:52:32;12.77;;;9.80;;
14599;SDS011;7386;45.586;12.854;2024-03-08T01:55:04;11.80;;;9.53;;
14599;SDS011;7386;45.586;12.854;2024-03-08T01:57:34;13.10;;;9.57;;
14599;SDS011;7386;45.586;12.854;2024-03-08T02:00:05;13.77;;;9.60;;
14599;SDS011;7386;45.586;12.854;2024-03-08T02:02:37;12.10;;;9.23;;
14599;SDS011;7386;45.586;12.854;2024-03-08T02:05:06;12.30;;;10.07;;
14599;SDS011;7386;45.586;12.854;2024-03-08T02:07:35;13.40;;;9.63;;
14599;SDS011;7386;45.586;12.854;2024-03-08T02:10:05;11.30;;;9.03;;
14599;SDS011;7386;45.586;12.854;2024-03-08T02:12:34;11.30;;;8.87;;
14599;SDS011;7386;45.586;12.854;2024-03-08T02:15:02;11.43;;;7.90;;
14599;SDS011;7386;45.586;12.854;2024-03-08T02:17:33;11.80;;;8.87;;
14599;SDS011;7386;45.586;12.854;2024-03-08T02:20:01;10.67;;;8.00;;
14599;SDS011;7386;45.586;12.854;2024-03-08T02:22:32;11.73;;;8.20;;
14599;SDS011;7386;45.586;12.854;2024-03-08T02:25:00;10.20;;;7.57;;
14599;SDS011;7386;45.586;12.854;2024-03-08T02:27:30;10.20;;;7.63;;
14599;SDS011;7386;45.586;12.854;2024-03-08T02:29:59;9.23;;;7.27;;
14599;SDS011;7386;45.586;12.854;2024-03-08T02:32:28;11.00;;;7.60;;
14599;SDS011;7386;45.586;12.854;2024-03-08T02:34:59;8.50;;;6.50;;
14599;SDS011;7386;45.586;12.854;2024-03-08T02:37:27;9.47;;;6.50;;
14599;SDS011;7386;45.586;12.854;2024-03-08T02:39:57;8.80;;;6.50;;
14599;SDS011;7386;45.586;12.854;2024-03-08T02:42:26;7.83;;;5.70;;
14599;SDS011;7386;45.586;12.854;2024-03-08T02:44:54;7.23;;;5.80;;
14599;SDS011;7386;45.586;12.854;2024-03-08T02:47:24;7.47;;;5.47;;
14599;SDS011;7386;45.586;12.854;2024-03-08T02:49:53;6.93;;;4.93;;
14599;SDS011;7386;45.586;12.854;2024-03-08T02:52:22;6.63;;;5.10;;
14599;SDS011;7386;45.586;12.854;2024-03-08T02:54:51;6.53;;;4.70;;
14599;SDS011;7386;45.586;12.854;2024-03-08T02:57:21;7.43;;;5.10;;
14599;SDS011;7386;45.586;12.854;2024-03-08T02:59:49;5.83;;;4.87;;
14599;SDS011;7386;45.586;12.854;2024-03-08T03:02:18;7.50;;;5.40;;
14599;SDS011;7386;45.586;12.854;2024-03-08T03:04:46;6.80;;;4.77;;
14599;SDS011;7386;45.586;12.854;2024-03-08T03:07:15;7.57;;;5.43;;
14599;SDS011;7386;45.586;12.854;2024-03-08T03:09:43;5.90;;;4.70;;
14599;SDS011;7386;45.586;12.854;2024-03-08T03:12:11;6.37;;;4.80;;
14599;SDS011;7386;45.586;12.854;2024-03-08T03:14:42;6.10;;;4.70;;
14599;SDS011;7386;45.586;12.854;2024-03-08T03:17:10;6.13;;;4.43;;
14599;SDS011;7386;45.586;12.854;2024-03-08T03:19:40;6.03;;;4.60;;
14599;SDS011;7386;45.586;12.854;2024-03-08T03:22:09;5.80;;;4.60;;
14599;SDS011;7386;45.586;12.854;2024-03-08T03:24:37;5.40;;;4.43;;
14599;SDS011;7386;45.586;12.854;2024-03-08T03:27:06;5.53;;;4.50;;
14599;SDS011;7386;45.586;12.854;2024-03-08T03:29:38;6.43;;;4.40;;
14599;SDS011;7386;45.586;12.854;2024-03-08T03:32:10;5.80;;;4.40;;
14599;SDS011;7386;45.586;12.854;2024-03-08T03:34:38;5.57;;;4.40;;
14599;SDS011;7386;45.586;12.854;2024-03-08T03:37:07;4.93;;;4.10;;
14599;SDS011;7386;45.586;12.854;2024-03-08T03:39:38;5.10;;;4.23;;
14599;SDS011;7386;45.586;12.854;2024-03-08T03:42:15;6.37;;;4.37;;
14599;SDS011;7386;45.586;12.854;2024-03-08T03:44:44;5.93;;;4.63;;
14599;SDS011;7386;45.586;12.854;2024-03-08T03:47:15;5.30;;;4.20;;
14599;SDS011;7386;45.586;12.854;2024-03-08T03:49:44;6.40;;;4.77;;
14599;SDS011;7386;45.586;12.854;2024-03-08T03:52:12;5.60;;;4.20;;
14599;SDS011;7386;45.586;12.854;2024-03-08T03:54:41;6.83;;;4.50;;
14599;SDS011;7386;45.586;12.854;2024-03-08T03:57:10;6.07;;;4.50;;
14599;SDS011;7386;45.586;12.854;2024-03-08T03:59:40;5.83;;;4.20;;
14599;SDS011;7386;45.586;12.854;2024-03-08T04:02:09;5.73;;;4.43;;
14599;SDS011;7386;45.586;12.854;2024-03-08T04:04:38;6.33;;;4.53;;
14599;SDS011;7386;45.586;12.854;2024-03-08T04:07:07;5.87;;;4.57;;
14599;SDS011;7386;45.586;12.854;2024-03-08T04:09:36;5.83;;;4.27;;
14599;SDS011;7386;45.586;12.854;2024-03-08T04:12:04;6.07;;;4.37;;
14599;SDS011;7386;45.586;12.854;2024-03-08T04:14:33;6.47;;;4.30;;
14599;SDS011;7386;45.586;12.854;2024-03-08T04:17:02;5.30;;;4.20;;
14599;SDS011;7386;45.586;12.854;2024-03-08T04:19:32;5.40;;;4.17;;
14599;SDS011;7386;45.586;12.854;2024-03-08T04:22:02;5.83;;;4.50;;
14599;SDS011;7386;45.586;12.854;2024-03-08T04:24:30;5.07;;;3.90;;
14599;SDS011;7386;45.586;12.854;2024-03-08T04:26:59;5.50;;;4.10;;
14599;SDS011;7386;45.586;12.854;2024-03-08T04:29:27;5.50;;;4.13;;
14599;SDS011;7386;45.586;12.854;2024-03-08T04:31:56;5.37;;;4.30;;
14599;SDS011;7386;45.586;12.854;2024-03-08T04:34:24;5.70;;;4.30;;
14599;SDS011;7386;45.586;12.854;2024-03-08T04:36:56;7.20;;;4.40;;
14599;SDS011;7386;45.586;12.854;2024-03-08T04:39:26;5.77;;;4.50;;
14599;SDS011;7386;45.586;12.854;2024-03-08T04:41:55;5.90;;;4.67;;
14599;SDS011;7386;45.586;12.854;2024-03-08T04:44:28;5.23;;;4.27;;
14599;SDS011;7386;45.586;12.854;2024-03-08T04:46:57;6.23;;;4.13;;
14599;SDS011;7386;45.586;12.854;2024-03-08T04:49:26;5.20;;;4.13;;
14599;SDS011;7386;45.586;12.854;2024-03-08T04:51:55;5.80;;;4.30;;
14599;SDS011;7386;45.586;12.854;2024-03-08T04:54:23;5.33;;;4.30;;
14599;SDS011;7386;45.586;12.854;2024-03-08T04:56:53;5.70;;;4.23;;
14599;SDS011;7386;45.586;12.854;2024-03-08T04:59:22;7.60;;;4.37;;
14599;SDS011;7386;45.586;12.854;2024-03-08T05:01:51;5.00;;;4.07;;
14599;SDS011;7386;45.586;12.854;2024-03-08T05:04:19;5.43;;;4.20;;
14599;SDS011;7386;45.586;12.854;2024-03-08T05:06:48;6.23;;;4.53;;
14599;SDS011;7386;45.586;12.854;2024-03-08T05:09:17;5.33;;;4.17;;
14599;SDS011;7386;45.586;12.854;2024-03-08T05:11:46;5.63;;;4.17;;
14599;SDS011;7386;45.586;12.854;2024-03-08T05:14:16;5.20;;;4.20;;
14599;SDS011;7386;45.586;12.854;2024-03-08T05:16:47;5.87;;;4.20;;
14599;SDS011;7386;45.586;12.854;2024-03-08T05:19:15;5.90;;;4.50;;
14599;SDS011;7386;45.586;12.854;2024-03-08T05:21:44;5.57;;;4.30;;
14599;SDS011;7386;45.586;12.854;2024-03-08T05:24:13;5.40;;;4.23;;
14599;SDS011;7386;45.586;12.854;2024-03-08T05:26:42;5.13;;;4.43;;
14599;SDS011;7386;45.586;12.854;2024-03-08T05:29:11;5.87;;;4.53;;
14599;SDS011;7386;45.586;12.854;2024-03-08T05:31:45;6.47;;;4.63;;
14599;SDS011;7386;45.586;12.854;2024-03-08T05:34:14;5.37;;;4.37;;
14599;SDS011;7386;45.586;12.854;2024-03-08T05:36:42;5.90;;;4.70;;
14599;SDS011;7386;45.586;12.854;2024-03-08T05:39:12;6.03;;;4.83;;
14599;SDS011;7386;45.586;12.854;2024-03-08T05:41:41;6.90;;;5.10;;
14599;SDS011;7386;45.586;12.854;2024-03-08T05:44:10;6.57;;;5.10;;
14599;SDS011;7386;45.586;12.854;2024-03-08T05:46:39;6.50;;;5.20;;
14599;SDS011;7386;45.586;12.854;2024-03-08T05:49:09;7.10;;;5.50;;
14599;SDS011;7386;45.586;12.854;2024-03-08T05:51:39;7.40;;;5.50;;
14599;SDS011;7386;45.586;12.854;2024-03-08T05:54:08;8.43;;;5.47;;
14599;SDS011;7386;45.586;12.854;2024-03-08T05:56:40;8.53;;;5.07;;
14599;SDS011;7386;45.586;12.854;2024-03-08T05:59:10;6.77;;;5.33;;
14599;SDS011;7386;45.586;12.854;2024-03-08T06:01:40;7.63;;;5.57;;
14599;SDS011;7386;45.586;12.854;2024-03-08T06:04:10;7.00;;;5.37;;
14599;SDS011;7386;45.586;12.854;2024-03-08T06:06:38;9.17;;;6.20;;
14599;SDS011;7386;45.586;12.854;2024-03-08T06:09:08;9.03;;;5.90;;
14599;SDS011;7386;45.586;12.854;2024-03-08T06:11:39;8.50;;;6.33;;
14599;SDS011;7386;45.586;12.854;2024-03-08T06:14:09;8.57;;;6.17;;
14599;SDS011;7386;45.586;12.854;2024-03-08T06:16:37;8.90;;;6.90;;
14599;SDS011;7386;45.586;12.854;2024-03-08T06:19:06;10.27;;;7.37;;
14599;SDS011;7386;45.586;12.854;2024-03-08T06:21:36;10.50;;;7.20;;
14599;SDS011;7386;45.586;12.854;2024-03-08T06:24:04;9.27;;;7.47;;
14599;SDS011;7386;45.586;12.854;2024-03-08T06:26:33;9.63;;;7.37;;
14599;SDS011;7386;45.586;12.854;2024-03-08T06:29:05;10.47;;;8.20;;
14599;SDS011;7386;45.586;12.854;2024-03-08T06:31:34;11.30;;;8.53;;
14599;SDS011;7386;45.586;12.854;2024-03-08T06:34:05;11.47;;;8.83;;
14599;SDS011;7386;45.586;12.854;2024-03-08T06:36:37;11.77;;;8.90;;
14599;SDS011;7386;45.586;12.854;2024-03-08T06:39:06;12.93;;;8.90;;
14599;SDS011;7386;45.586;12.854;2024-03-08T06:41:36;12.63;;;9.43;;
14599;SDS011;7386;45.586;12.854;2024-03-08T06:44:05;12.17;;;9.07;;
14599;SDS011;7386;45.586;12.854;2024-03-08T06:46:35;13.13;;;9.53;;
14599;SDS011;7386;45.586;12.854;2024-03-08T06:49:04;12.27;;;9.40;;
14599;SDS011;7386;45.586;12.854;2024-03-08T06:51:34;11.90;;;9.13;;
14599;SDS011;7386;45.586;12.854;2024-03-08T06:54:04;13.13;;;9.67;;
14599;SDS011;7386;45.586;12.854;2024-03-08T06:56:35;12.37;;;9.53;;
14599;SDS011;7386;45.586;12.854;2024-03-08T06:59:05;13.70;;;10.00;;
14599;SDS011;7386;45.586;12.854;2024-03-08T07:01:39;14.70;;;10.83;;
14599;SDS011;7386;45.586;12.854;2024-03-08T07:04:07;13.73;;;10.57;;
14599;SDS011;7386;45.586;12.854;2024-03-08T07:06:38;13.70;;;10.63;;
14599;SDS011;7386;45.586;12.854;2024-03-08T07:09:08;12.97;;;10.40;;
14599;SDS011;7386;45.586;12.854;2024-03-08T07:11:38;14.57;;;10.53;;
14599;SDS011;7386;45.586;12.854;2024-03-08T07:14:10;15.50;;;11.30;;
14599;SDS011;7386;45.586;12.854;2024-03-08T07:16:41;17.03;;;11.80;;
14599;SDS011;7386;45.586;12.854;2024-03-08T07:19:11;17.73;;;12.07;;
14599;SDS011;7386;45.586;12.854;2024-03-08T07:21:39;17.33;;;12.13;;
14599;SDS011;7386;45.586;12.854;2024-03-08T07:24:09;16.27;;;11.90;;
14599;SDS011;7386;45.586;12.854;2024-03-08T07:26:54;21.23;;;12.87;;
14599;SDS011;7386;45.586;12.854;2024-03-08T07:29:22;17.07;;;12.17;;
14599;SDS011;7386;45.586;12.854;2024-03-08T07:31:51;19.73;;;13.30;;
14599;SDS011;7386;45.586;12.854;2024-03-08T07:34:28;21.43;;;12.50;;
14599;SDS011;7386;45.586;12.854;2024-03-08T07:36:58;18.70;;;12.87;;
14599;SDS011;7386;45.586;12.854;2024-03-08T07:39:28;18.40;;;13.07;;
14599;SDS011;7386;45.586;12.854;2024-03-08T07:41:56;20.20;;;13.53;;
14599;SDS011;7386;45.586;12.854;2024-03-08T07:44:25;18.77;;;13.17;;
14599;SDS011;7386;45.586;12.854;2024-03-08T07:46:54;18.83;;;13.13;;
14599;SDS011;7386;45.586;12.854;2024-03-08T07:49:23;19.70;;;13.10;;
14599;SDS011;7386;45.586;12.854;2024-03-08T07:51:52;16.33;;;12.47;;
14599;SDS011;7386;45.586;12.854;2024-03-08T07:54:20;17.43;;;13.00;;
14599;SDS011;7386;45.586;12.854;2024-03-08T07:56:50;19.07;;;12.93;;
14599;SDS011;7386;45.586;12.854;2024-03-08T07:59:18;22.23;;;14.30;;
14599;SDS011;7386;45.586;12.854;2024-03-08T08:01:47;18.03;;;13.60;;
14599;SDS011;7386;45.586;12.854;2024-03-08T08:04:16;16.80;;;13.03;;
14599;SDS011;7386;45.586;12.854;2024-03-08T08:06:45;12.40;;;8.80;;
14599;SDS011;7386;45.586;12.854;2024-03-08T08:09:14;14.87;;;10.33;;
14599;SDS011;7386;45.586;12.854;2024-03-08T08:11:50;16.77;;;10.67;;
14599;SDS011;7386;45.586;12.854;2024-03-08T08:14:18;17.03;;;11.97;;
14599;SDS011;7386;45.586;12.854;2024-03-08T08:16:47;19.53;;;13.50;;
14599;SDS011;7386;45.586;12.854;2024-03-08T08:19:19;17.97;;;12.73;;
14599;SDS011;7386;45.586;12.854;2024-03-08T08:21:47;16.83;;;10.70;;
14599;SDS011;7386;45.586;12.854;2024-03-08T08:24:16;13.87;;;10.47;;
14599;SDS011;7386;45.586;12.854;2024-03-08T08:26:46;16.50;;;11.87;;
14599;SDS011;7386;45.586;12.854;2024-03-08T08:29:16;20.03;;;13.53;;
14599;SDS011;7386;45.586;12.854;2024-03-08T08:31:46;19.60;;;14.27;;
14599;SDS011;7386;45.586;12.854;2024-03-08T08:34:16;17.50;;;13.23;;
14599;SDS011;7386;45.586;12.854;2024-03-08T08:36:45;19.47;;;12.53;;
14599;SDS011;7386;45.586;12.854;2024-03-08T08:39:14;19.90;;;12.73;;
14599;SDS011;7386;45.586;12.854;2024-03-08T08:41:43;16.67;;;12.57;;
14599;SDS011;7386;45.586;12.854;2024-03-08T08:44:11;18.53;;;13.23;;
14599;SDS011;7386;45.586;12.854;2024-03-08T08:46:43;20.20;;;14.10;;
14599;SDS011;7386;45.586;12.854;2024-03-08T08:49:12;21.83;;;13.83;;
14599;SDS011;7386;45.586;12.854;2024-03-08T08:51:48;18.67;;;12.87;;
14599;SDS011;7386;45.586;12.854;2024-03-08T08:54:17;17.47;;;13.33;;
14599;SDS011;7386;45.586;12.854;2024-03-08T08:56:47;19.90;;;14.20;;
14599;SDS011;7386;45.586;12.854;2024-03-08T08:59:15;19.87;;;13.80;;
14599;SDS011;7386;45.586;12.854;2024-03-08T09:01:50;19.60;;;14.10;;
14599;SDS011;7386;45.586;12.854;2024-03-08T09:04:20;23.73;;;16.70;;
14599;SDS011;7386;45.586;12.854;2024-03-08T09:06:49;23.70;;;16.03;;
14599;SDS011;7386;45.586;12.854;2024-03-08T09:09:18;24.40;;;15.13;;
14599;SDS011;7386;45.586;12.854;2024-03-08T09:11:48;20.50;;;14.23;;
14599;SDS011;7386;45.586;12.854;2024-03-08T09:14:16;21.73;;;14.80;;
14599;SDS011;7386;45.586;12.854;2024-03-08T09:16:46;25.30;;;17.50;;
14599;SDS011;7386;45.586;12.854;2024-03-08T09:19:16;30.03;;;19.07;;
14599;SDS011;7386;45.586;12.854;2024-03-08T09:21:45;24.47;;;17.10;;
14599;SDS011;7386;45.586;12.854;2024-03-08T09:24:14;25.17;;;16.37;;
14599;SDS011;7386;45.586;12.854;2024-03-08T09:26:42;24.53;;;16.40;;
14599;SDS011;7386;45.586;12.854;2024-03-08T09:29:11;28.33;;;18.80;;
14599;SDS011;7386;45.586;12.854;2024-03-08T09:31:39;26.53;;;17.77;;
14599;SDS011;7386;45.586;12.854;2024-03-08T09:34:08;24.63;;;16.33;;
14599;SDS011;7386;45.586;12.854;2024-03-08T09:36:46;23.23;;;16.07;;
14599;SDS011;7386;45.586;12.854;2024-03-08T09:39:15;28.77;;;20.00;;
14599;SDS011;7386;45.586;12.854;2024-03-08T09:41:45;31.40;;;20.43;;
14599;SDS011;7386;45.586;12.854;2024-03-08T09:44:14;27.00;;;17.83;;
14599;SDS011;7386;45.586;12.854;2024-03-08T09:46:43;27.83;;;18.80;;
14599;SDS011;7386;45.586;12.854;2024-03-08T09:49:13;37.70;;;23.53;;
14599;SDS011;7386;45.586;12.854;2024-03-08T09:51:43;30.10;;;19.80;;
14599;SDS011;7386;45.586;12.854;2024-03-08T09:54:13;28.00;;;18.57;;
14599;SDS011;7386;45.586;12.854;2024-03-08T09:56:49;29.30;;;19.37;;
14599;SDS011;7386;45.586;12.854;2024-03-08T09:59:19;35.37;;;23.53;;
14599;SDS011;7386;45.586;12.854;2024-03-08T10:02:12;35.30;;;22.83;;
14599;SDS011;7386;45.586;12.854;2024-03-08T10:04:42;30.23;;;19.50;;
14599;SDS011;7386;45.586;12.854;2024-03-08T10:07:13;28.00;;;19.57;;
14599;SDS011;7386;45.586;12.854;2024-03-08T10:09:43;36.40;;;22.80;;
14599;SDS011;7386;45.586;12.854;2024-03-08T10:12:17;33.27;;;20.23;;
14599;SDS011;7386;45.586;12.854;2024-03-08T10:14:46;28.40;;;19.10;;
14599;SDS011;7386;45.586;12.854;2024-03-08T10:17:14;33.33;;;21.53;;
14599;SDS011;7386;45.586;12.854;2024-03-08T10:19:49;39.30;;;24.23;;
14599;SDS011;7386;45.586;12.854;2024-03-08T10:22:19;29.83;;;20.53;;
14599;SDS011;7386;45.586;12.854;2024-03-08T10:24:49;27.67;;;17.53;;
14599;SDS011;7386;45.586;12.854;2024-03-08T10:27:18;29.43;;;18.60;;
14599;SDS011;7386;45.586;12.854;2024-03-08T10:29:47;37.93;;;24.00;;
14599;SDS011;7386;45.586;12.854;2024-03-08T10:32:18;38.00;;;23.17;;
14599;SDS011;7386;45.586;12.854;2024-03-08T10:34:46;29.80;;;19.97;;
14599;SDS011;7386;45.586;12.854;2024-03-08T10:37:16;32.10;;;21.83;;
14599;SDS011;7386;45.586;12.854;2024-03-08T10:39:55;39.00;;;25.23;;
14599;SDS011;7386;45.586;12.854;2024-03-08T10:42:29;37.00;;;22.53;;
14599;SDS011;7386;45.586;12.854;2024-03-08T10:45:05;28.50;;;19.13;;
14599;SDS011;7386;45.586;12.854;2024-03-08T10:47:35;30.30;;;20.80;;
14599;SDS011;7386;45.586;12.854;2024-03-08T10:50:08;44.77;;;27.90;;
14599;SDS011;7386;45.586;12.854;2024-03-08T10:52:39;35.10;;;22.07;;
14599;SDS011;7386;45.586;12.854;2024-03-08T10:55:09;31.63;;;20.57;;
14599;SDS011;7386;45.586;12.854;2024-03-08T10:57:39;36.50;;;23.47;;
14599;SDS011;7386;45.586;12.854;2024-03-08T11:00:09;55.13;;;32.63;;
14599;SDS011;7386;45.586;12.854;2024-03-08T11:02:38;37.07;;;23.57;;
14599;SDS011;7386;45.586;12.854;2024-03-08T11:05:09;30.03;;;20.00;;
14599;SDS011;7386;45.586;12.854;2024-03-08T11:07:40;39.90;;;24.00;;
14599;SDS011;7386;45.586;12.854;2024-03-08T11:10:19;40.43;;;25.77;;
14599;SDS011;7386;45.586;12.854;2024-03-08T11:12:48;34.73;;;22.43;;
14599;SDS011;7386;45.586;12.854;2024-03-08T11:15:16;31.60;;;20.90;;
14599;SDS011;7386;45.586;12.854;2024-03-08T11:17:46;33.93;;;22.30;;
14599;SDS011;7386;45.586;12.854;2024-03-08T11:20:16;46.93;;;27.67;;
14599;SDS011;7386;45.586;12.854;2024-03-08T11:22:50;34.67;;;21.83;;
14599;SDS011;7386;45.586;12.854;2024-03-08T11:25:33;25.07;;;17.70;;
14599;SDS011;7386;45.586;12.854;2024-03-08T11:28:15;35.37;;;24.70;;
14599;SDS011;7386;45.586;12.854;2024-03-08T11:30:45;35.93;;;22.77;;
14599;SDS011;7386;45.586;12.854;2024-03-08T11:33:15;28.43;;;18.47;;
14599;SDS011;7386;45.586;12.854;2024-03-08T11:35:45;26.27;;;17.43;;
14599;SDS011;7386;45.586;12.854;2024-03-08T11:38:14;41.13;;;26.30;;
14599;SDS011;7386;45.586;12.854;2024-03-08T11:40:45;30.57;;;20.43;;
14599;SDS011;7386;45.586;12.854;2024-03-08T11:43:16;33.83;;;21.07;;
14599;SDS011;7386;45.586;12.854;2024-03-08T11:45:46;30.33;;;18.27;;
14599;SDS011;7386;45.586;12.854;2024-03-08T11:48:14;35.07;;;22.10;;
14599;SDS011;7386;45.586;12.854;2024-03-08T11:50:43;37.80;;;24.03;;
14599;SDS011;7386;45.586;12.854;2024-03-08T11:53:11;31.27;;;19.63;;
14599;SDS011;7386;45.586;12.854;2024-03-08T11:55:40;25.33;;;16.40;;
14599;SDS011;7386;45.586;12.854;2024-03-08T11:58:10;36.60;;;22.43;;
14599;SDS011;7386;45.586;12.854;2024-03-08T12:00:40;36.70;;;22.77;;
14599;SDS011;7386;45.586;12.854;2024-03-08T12:03:15;29.57;;;19.53;;
14599;SDS011;7386;45.586;12.854;2024-03-08T12:05:44;25.17;;;17.33;;
14599;SDS011;7386;45.586;12.854;2024-03-08T12:08:13;35.07;;;22.30;;
14599;SDS011;7386;45.586;12.854;2024-03-08T12:10:42;33.23;;;20.87;;
14599;SDS011;7386;45.586;12.854;2024-03-08T12:13:12;25.97;;;17.50;;
14599;SDS011;7386;45.586;12.854;2024-03-08T12:15:41;23.20;;;15.87;;
14599;SDS011;7386;45.586;12.854;2024-03-08T12:18:10;26.33;;;17.87;;
14599;SDS011;7386;45.586;12.854;2024-03-08T12:20:39;25.67;;;17.53;;
14599;SDS011;7386;45.586;12.854;2024-03-08T12:23:13;24.77;;;17.30;;
14599;SDS011;7386;45.586;12.854;2024-03-08T12:25:43;22.80;;;16.20;;
14599;SDS011;7386;45.586;12.854;2024-03-08T12:28:13;32.20;;;20.17;;
14599;SDS011;7386;45.586;12.854;2024-03-08T12:30:45;30.00;;;18.50;;
14599;SDS011;7386;45.586;12.854;2024-03-08T12:33:15;25.13;;;17.10;;
14599;SDS011;7386;45.586;12.854;2024-03-08T12:35:50;25.37;;;18.07;;
14599;SDS011;7386;45.586;12.854;2024-03-08T12:38:22;27.97;;;17.67;;
14599;SDS011;7386;45.586;12.854;2024-03-08T12:40:55;25.00;;;16.23;;
14599;SDS011;7386;45.586;12.854;2024-03-08T12:43:26;22.50;;;14.70;;
14599;SDS011;7386;45.586;12.854;2024-03-08T12:45:57;25.87;;;16.67;;
14599;SDS011;7386;45.586;12.854;2024-03-08T12:48:25;22.00;;;15.30;;
14599;SDS011;7386;45.586;12.854;2024-03-08T12:50:54;22.13;;;15.23;;
14599;SDS011;7386;45.586;12.854;2024-03-08T12:53:22;20.77;;;13.70;;
14599;SDS011;7386;45.586;12.854;2024-03-08T12:55:52;24.10;;;16.07;;
14599;SDS011;7386;45.586;12.854;2024-03-08T12:58:22;20.67;;;14.47;;
14599;SDS011;7386;45.586;12.854;2024-03-08T13:00:53;19.47;;;13.13;;
14599;SDS011;7386;45.586;12.854;2024-03-08T13:03:22;18.97;;;14.00;;
14599;SDS011;7386;45.586;12.854;2024-03-08T13:05:51;23.87;;;15.87;;
14599;SDS011;7386;45.586;12.854;2024-03-08T13:08:19;22.63;;;15.10;;
14599;SDS011;7386;45.586;12.854;2024-03-08T13:10:51;20.20;;;14.00;;
14599;SDS011;7386;45.586;12.854;2024-03-08T13:13:20;18.30;;;13.47;;
14599;SDS011;7386;45.586;12.854;2024-03-08T13:15:49;20.27;;;14.67;;
14599;SDS011;7386;45.586;12.854;2024-03-08T13:18:20;22.60;;;14.17;;
14599;SDS011;7386;45.586;12.854;2024-03-08T13:20:49;19.30;;;13.13;;
14599;SDS011;7386;45.586;12.854;2024-03-08T13:23:18;20.30;;;13.50;;
14599;SDS011;7386;45.586;12.854;2024-03-08T13:25:47;19.23;;;12.77;;
14599;SDS011;7386;45.586;12.854;2024-03-08T13:28:16;18.93;;;13.13;;
14599;SDS011;7386;45.586;12.854;2024-03-08T13:30:49;17.97;;;12.83;;
14599;SDS011;7386;45.586;12.854;2024-03-08T13:33:26;17.70;;;12.47;;
14599;SDS011;7386;45.586;12.854;2024-03-08T13:35:54;19.67;;;13.23;;
14599;SDS011;7386;45.586;12.854;2024-03-08T13:38:30;19.20;;;12.43;;
14599;SDS011;7386;45.586;12.854;2024-03-08T13:41:00;22.07;;;12.23;;
14599;SDS011;7386;45.586;12.854;2024-03-08T13:43:29;16.17;;;12.27;;
14599;SDS011;7386;45.586;12.854;2024-03-08T13:46:01;16.90;;;11.63;;
14599;SDS011;7386;45.586;12.854;2024-03-08T13:48:31;16.93;;;11.17;;
14599;SDS011;7386;45.586;12.854;2024-03-08T13:50:59;15.30;;;11.33;;
14599;SDS011;7386;45.586;12.854;2024-03-08T13:53:28;17.67;;;11.70;;
14599;SDS011;7386;45.586;12.854;2024-03-08T13:55:56;15.50;;;10.90;;
14599;SDS011;7386;45.586;12.854;2024-03-08T13:58:25;15.03;;;11.00;;
14599;SDS011;7386;45.586;12.854;2024-03-08T14:00:53;14.60;;;10.40;;
14599;SDS011;7386;45.586;12.854;2024-03-08T14:03:22;16.77;;;11.53;;
14599;SDS011;7386;45.586;12.854;2024-03-08T14:05:52;17.53;;;11.33;;
14599;SDS011;7386;45.586;12.854;2024-03-08T14:08:22;15.93;;;11.30;;
14599;SDS011;7386;45.586;12.854;2024-03-08T14:10:51;17.10;;;11.50;;
14599;SDS011;7386;45.586;12.854;2024-03-08T14:13:20;16.13;;;11.27;;
14599;SDS011;7386;45.586;12.854;2024-03-08T14:15:50;16.07;;;11.47;;
14599;SDS011;7386;45.586;12.854;2024-03-08T14:18:19;16.53;;;11.27;;
14599;SDS011;7386;45.586;12.854;2024-03-08T14:20:47;14.27;;;10.73;;
14599;SDS011;7386;45.586;12.854;2024-03-08T14:23:18;14.77;;;10.80;;
14599;SDS011;7386;45.586;12.854;2024-03-08T14:25:48;14.20;;;10.90;;
14599;SDS011;7386;45.586;12.854;2024-03-08T14:28:18;15.60;;;11.30;;
14599;SDS011;7386;45.586;12.854;2024-03-08T14:30:49;16.37;;;11.83;;
14599;SDS011;7386;45.586;12.854;2024-03-08T14:33:18;17.00;;;11.07;;
14599;SDS011;7386;45.586;12.854;2024-03-08T14:35:47;14.50;;;10.63;;
14599;SDS011;7386;45.586;12.854;2024-03-08T14:38:16;13.90;;;10.50;;
14599;SDS011;7386;45.586;12.854;2024-03-08T14:40:45;16.23;;;10.73;;
14599;SDS011;7386;45.586;12.854;2024-03-08T14:43:14;14.33;;;10.73;;